sensor_id;sensor_type;location;lat;lon;timestamp;P1;durP1;ratioP1;P2;durP2;ratioP2
14100;SDS011;7127;49.372;8.166;2023-03-03T00:01:10;3.47;;;2.50;;
14100;SDS011;7127;49.372;8.166;2023-03-03T00:03:39;4.47;;;2.60;;
14100;SDS011;7127;49.372;8.166;2023-03-03T00:06:08;4.87;;;2.80;;
14100;SDS011;7127;49.372;8.166;2023-03-03T00:08:35;4.20;;;2.50;;
14100;SDS011;7127;49.372;8.166;2023-03-03T00:11:02;3.80;;;2.87;;
14100;SDS011;7127;49.372;8.166;2023-03-03T00:13:31;3.53;;;2.23;;
14100;SDS011;7127;49.372;8.166;2023-03-03T00:16:10;3.90;;;3.00;;
14100;SDS011;7127;49.372;8.166;2023-03-03T00:18:41;3.03;;;2.40;;
14100;SDS011;7127;49.372;8.166;2023-03-03T00:21:16;3.23;;;2.60;;
14100;SDS011;7127;49.372;8.166;2023-03-03T00:23:49;2.70;;;2.30;;
14100;SDS011;7127;49.372;8.166;2023-03-03T00:26:17;2.87;;;2.30;;
14100;SDS011;7127;49.372;8.166;2023-03-03T00:28:48;3.53;;;2.83;;
14100;SDS011;7127;49.372;8.166;2023-03-03T00:31:17;3.93;;;2.83;;
14100;SDS011;7127;49.372;8.166;2023-03-03T00:33:47;3.40;;;2.93;;
14100;SDS011;7127;49.372;8.166;2023-03-03T00:39:17;3.30;;;2.50;;
14100;SDS011;7127;49.372;8.166;2023-03-03T00:41:49;3.03;;;2.43;;
14100;SDS011;7127;49.372;8.166;2023-03-03T00:44:34;4.03;;;2.90;;
14100;SDS011;7127;49.372;8.166;2023-03-03T00:47:23;4.20;;;2.90;;
14100;SDS011;7127;49.372;8.166;2023-03-03T00:49:58;4.80;;;3.30;;
14100;SDS011;7127;49.372;8.166;2023-03-03T00:52:50;3.37;;;2.67;;
14100;SDS011;7127;49.372;8.166;2023-03-03T00:55:24;3.97;;;2.60;;
14100;SDS011;7127;49.372;8.166;2023-03-03T00:57:51;3.27;;;2.50;;
14100;SDS011;7127;49.372;8.166;2023-03-03T01:00:18;2.77;;;2.23;;
14100;SDS011;7127;49.372;8.166;2023-03-03T01:02:45;3.27;;;2.60;;
14100;SDS011;7127;49.372;8.166;2023-03-03T01:05:14;3.03;;;2.70;;
14100;SDS011;7127;49.372;8.166;2023-03-03T01:07:42;3.47;;;2.50;;
14100;SDS011;7127;49.372;8.166;2023-03-03T01:10:09;3.30;;;2.53;;
14100;SDS011;7127;49.372;8.166;2023-03-03T01:12:36;3.13;;;2.67;;
14100;SDS011;7127;49.372;8.166;2023-03-03T01:15:05;3.30;;;2.50;;
14100;SDS011;7127;49.372;8.166;2023-03-03T01:17:33;3.57;;;2.43;;
14100;SDS011;7127;49.372;8.166;2023-03-03T01:20:00;3.00;;;2.70;;
14100;SDS011;7127;49.372;8.166;2023-03-03T01:22:29;3.50;;;2.93;;
14100;SDS011;7127;49.372;8.166;2023-03-03T01:24:56;3.57;;;2.80;;
14100;SDS011;7127;49.372;8.166;2023-03-03T01:29:58;3.37;;;2.60;;
14100;SDS011;7127;49.372;8.166;2023-03-03T01:32:26;3.33;;;2.90;;
14100;SDS011;7127;49.372;8.166;2023-03-03T01:34:53;3.67;;;2.60;;
14100;SDS011;7127;49.372;8.166;2023-03-03T01:37:20;3.37;;;2.73;;
14100;SDS011;7127;49.372;8.166;2023-03-03T01:39:49;3.20;;;2.47;;
14100;SDS011;7127;49.372;8.166;2023-03-03T01:42:17;3.53;;;2.80;;
14100;SDS011;7127;49.372;8.166;2023-03-03T01:44:44;4.10;;;3.00;;
14100;SDS011;7127;49.372;8.166;2023-03-03T01:47:11;5.00;;;3.03;;
14100;SDS011;7127;49.372;8.166;2023-03-03T01:49:40;4.20;;;3.47;;
14100;SDS011;7127;49.372;8.166;2023-03-03T01:52:12;4.10;;;3.30;;
14100;SDS011;7127;49.372;8.166;2023-03-03T01:54:48;5.83;;;3.63;;
14100;SDS011;7127;49.372;8.166;2023-03-03T01:57:21;3.70;;;3.30;;
14100;SDS011;7127;49.372;8.166;2023-03-03T01:59:51;5.83;;;4.30;;
14100;SDS011;7127;49.372;8.166;2023-03-03T02:02:20;6.57;;;4.00;;
14100;SDS011;7127;49.372;8.166;2023-03-03T02:04:48;5.47;;;4.10;;
14100;SDS011;7127;49.372;8.166;2023-03-03T02:07:15;4.53;;;3.60;;
14100;SDS011;7127;49.372;8.166;2023-03-03T02:09:47;5.43;;;3.23;;
14100;SDS011;7127;49.372;8.166;2023-03-03T02:12:21;3.17;;;2.60;;
14100;SDS011;7127;49.372;8.166;2023-03-03T02:14:56;4.60;;;3.10;;
14100;SDS011;7127;49.372;8.166;2023-03-03T02:17:22;4.33;;;3.67;;
14100;SDS011;7127;49.372;8.166;2023-03-03T02:19:51;4.27;;;3.43;;
14100;SDS011;7127;49.372;8.166;2023-03-03T02:22:28;3.67;;;3.20;;
14100;SDS011;7127;49.372;8.166;2023-03-03T02:25:02;4.13;;;3.03;;
14100;SDS011;7127;49.372;8.166;2023-03-03T02:27:35;6.33;;;4.00;;
14100;SDS011;7127;49.372;8.166;2023-03-03T02:30:13;4.27;;;3.67;;
14100;SDS011;7127;49.372;8.166;2023-03-03T02:32:42;5.33;;;3.80;;
14100;SDS011;7127;49.372;8.166;2023-03-03T02:35:24;5.50;;;3.97;;
14100;SDS011;7127;49.372;8.166;2023-03-03T02:37:54;5.97;;;3.57;;
14100;SDS011;7127;49.372;8.166;2023-03-03T02:40:24;4.30;;;3.30;;
14100;SDS011;7127;49.372;8.166;2023-03-03T02:42:54;4.00;;;3.00;;
14100;SDS011;7127;49.372;8.166;2023-03-03T02:45:23;5.27;;;3.93;;
14100;SDS011;7127;49.372;8.166;2023-03-03T02:47:50;5.30;;;3.80;;
14100;SDS011;7127;49.372;8.166;2023-03-03T02:50:18;5.70;;;3.77;;
14100;SDS011;7127;49.372;8.166;2023-03-03T02:52:44;4.63;;;3.20;;
14100;SDS011;7127;49.372;8.166;2023-03-03T02:55:11;4.03;;;3.50;;
14100;SDS011;7127;49.372;8.166;2023-03-03T02:57:38;4.60;;;3.40;;
14100;SDS011;7127;49.372;8.166;2023-03-03T03:00:07;6.00;;;3.50;;
14100;SDS011;7127;49.372;8.166;2023-03-03T03:02:34;6.03;;;4.47;;
14100;SDS011;7127;49.372;8.166;2023-03-03T03:05:01;7.17;;;4.23;;
14100;SDS011;7127;49.372;8.166;2023-03-03T03:07:28;5.90;;;4.03;;
14100;SDS011;7127;49.372;8.166;2023-03-03T03:09:55;4.70;;;3.90;;
14100;SDS011;7127;49.372;8.166;2023-03-03T03:12:22;4.87;;;4.00;;
14100;SDS011;7127;49.372;8.166;2023-03-03T03:17:20;5.07;;;3.43;;
14100;SDS011;7127;49.372;8.166;2023-03-03T03:19:47;4.90;;;3.77;;
14100;SDS011;7127;49.372;8.166;2023-03-03T03:22:13;5.03;;;4.03;;
14100;SDS011;7127;49.372;8.166;2023-03-03T03:24:40;4.57;;;3.60;;
14100;SDS011;7127;49.372;8.166;2023-03-03T03:27:07;3.50;;;3.20;;
14100;SDS011;7127;49.372;8.166;2023-03-03T03:29:34;4.23;;;3.43;;
14100;SDS011;7127;49.372;8.166;2023-03-03T03:32:01;4.10;;;3.60;;
14100;SDS011;7127;49.372;8.166;2023-03-03T03:34:29;5.07;;;3.83;;
14100;SDS011;7127;49.372;8.166;2023-03-03T03:36:56;4.87;;;3.70;;
14100;SDS011;7127;49.372;8.166;2023-03-03T03:39:22;4.33;;;3.47;;
14100;SDS011;7127;49.372;8.166;2023-03-03T03:41:49;4.43;;;3.53;;
14100;SDS011;7127;49.372;8.166;2023-03-03T03:44:16;5.13;;;3.80;;
14100;SDS011;7127;49.372;8.166;2023-03-03T03:46:43;4.73;;;3.90;;
14100;SDS011;7127;49.372;8.166;2023-03-03T03:49:09;4.40;;;3.40;;
14100;SDS011;7127;49.372;8.166;2023-03-03T03:51:38;4.67;;;3.63;;
14100;SDS011;7127;49.372;8.166;2023-03-03T03:54:06;3.73;;;3.17;;
14100;SDS011;7127;49.372;8.166;2023-03-03T03:56:33;3.43;;;2.87;;
14100;SDS011;7127;49.372;8.166;2023-03-03T03:58:59;3.70;;;2.90;;
14100;SDS011;7127;49.372;8.166;2023-03-03T04:01:26;5.10;;;3.90;;
14100;SDS011;7127;49.372;8.166;2023-03-03T04:03:53;4.87;;;4.00;;
14100;SDS011;7127;49.372;8.166;2023-03-03T04:06:20;4.63;;;3.60;;
14100;SDS011;7127;49.372;8.166;2023-03-03T04:08:49;4.67;;;3.60;;
14100;SDS011;7127;49.372;8.166;2023-03-03T04:11:15;5.47;;;4.00;;
14100;SDS011;7127;49.372;8.166;2023-03-03T04:13:42;4.60;;;3.53;;
14100;SDS011;7127;49.372;8.166;2023-03-03T04:16:09;5.40;;;3.80;;
14100;SDS011;7127;49.372;8.166;2023-03-03T04:18:36;5.53;;;3.40;;
14100;SDS011;7127;49.372;8.166;2023-03-03T04:21:03;4.23;;;3.17;;
14100;SDS011;7127;49.372;8.166;2023-03-03T04:23:30;4.10;;;3.53;;
14100;SDS011;7127;49.372;8.166;2023-03-03T04:25:58;6.33;;;4.07;;
14100;SDS011;7127;49.372;8.166;2023-03-03T04:28:25;4.83;;;3.67;;
14100;SDS011;7127;49.372;8.166;2023-03-03T04:30:52;4.33;;;3.60;;
14100;SDS011;7127;49.372;8.166;2023-03-03T04:33:18;4.93;;;3.73;;
14100;SDS011;7127;49.372;8.166;2023-03-03T04:35:45;5.07;;;3.70;;
14100;SDS011;7127;49.372;8.166;2023-03-03T04:38:12;4.90;;;3.63;;
14100;SDS011;7127;49.372;8.166;2023-03-03T04:40:40;4.07;;;3.50;;
14100;SDS011;7127;49.372;8.166;2023-03-03T04:43:09;4.50;;;3.77;;
14100;SDS011;7127;49.372;8.166;2023-03-03T04:45:36;4.73;;;4.03;;
14100;SDS011;7127;49.372;8.166;2023-03-03T04:48:03;4.60;;;3.90;;
14100;SDS011;7127;49.372;8.166;2023-03-03T04:50:30;4.10;;;3.70;;
14100;SDS011;7127;49.372;8.166;2023-03-03T04:52:58;4.97;;;3.77;;
14100;SDS011;7127;49.372;8.166;2023-03-03T04:55:25;5.50;;;3.67;;
14100;SDS011;7127;49.372;8.166;2023-03-03T04:57:52;4.27;;;3.50;;
14100;SDS011;7127;49.372;8.166;2023-03-03T05:00:20;5.87;;;4.50;;
14100;SDS011;7127;49.372;8.166;2023-03-03T05:02:47;5.00;;;3.80;;
14100;SDS011;7127;49.372;8.166;2023-03-03T05:05:14;4.73;;;3.97;;
14100;SDS011;7127;49.372;8.166;2023-03-03T05:07:41;6.37;;;4.50;;
14100;SDS011;7127;49.372;8.166;2023-03-03T05:10:08;5.10;;;4.10;;
14100;SDS011;7127;49.372;8.166;2023-03-03T05:12:36;5.10;;;4.20;;
14100;SDS011;7127;49.372;8.166;2023-03-03T05:15:05;5.33;;;3.90;;
14100;SDS011;7127;49.372;8.166;2023-03-03T05:17:34;5.87;;;4.10;;
14100;SDS011;7127;49.372;8.166;2023-03-03T05:20:01;4.77;;;4.20;;
14100;SDS011;7127;49.372;8.166;2023-03-03T05:22:32;4.87;;;4.17;;
14100;SDS011;7127;49.372;8.166;2023-03-03T05:24:59;4.67;;;4.07;;
14100;SDS011;7127;49.372;8.166;2023-03-03T05:27:26;7.47;;;6.00;;
14100;SDS011;7127;49.372;8.166;2023-03-03T05:29:53;13.80;;;9.83;;
14100;SDS011;7127;49.372;8.166;2023-03-03T05:32:20;13.53;;;9.37;;
14100;SDS011;7127;49.372;8.166;2023-03-03T05:34:51;9.07;;;6.77;;
14100;SDS011;7127;49.372;8.166;2023-03-03T05:37:18;6.93;;;5.27;;
14100;SDS011;7127;49.372;8.166;2023-03-03T05:39:45;7.10;;;5.60;;
14100;SDS011;7127;49.372;8.166;2023-03-03T05:42:12;6.87;;;5.30;;
14100;SDS011;7127;49.372;8.166;2023-03-03T05:44:52;6.27;;;4.63;;
14100;SDS011;7127;49.372;8.166;2023-03-03T05:47:21;7.43;;;5.73;;
14100;SDS011;7127;49.372;8.166;2023-03-03T05:49:48;7.97;;;5.80;;
14100;SDS011;7127;49.372;8.166;2023-03-03T05:52:34;8.53;;;6.57;;
14100;SDS011;7127;49.372;8.166;2023-03-03T05:55:00;6.87;;;5.50;;
14100;SDS011;7127;49.372;8.166;2023-03-03T05:57:27;8.13;;;6.20;;
14100;SDS011;7127;49.372;8.166;2023-03-03T05:59:54;8.27;;;6.90;;
14100;SDS011;7127;49.372;8.166;2023-03-03T06:02:21;10.40;;;7.70;;
14100;SDS011;7127;49.372;8.166;2023-03-03T06:04:48;11.70;;;9.63;;
14100;SDS011;7127;49.372;8.166;2023-03-03T06:07:15;9.90;;;8.10;;
14100;SDS011;7127;49.372;8.166;2023-03-03T06:09:43;11.63;;;8.87;;
14100;SDS011;7127;49.372;8.166;2023-03-03T06:12:11;11.93;;;9.10;;
14100;SDS011;7127;49.372;8.166;2023-03-03T06:14:38;11.00;;;8.70;;
14100;SDS011;7127;49.372;8.166;2023-03-03T06:17:05;10.13;;;8.50;;
14100;SDS011;7127;49.372;8.166;2023-03-03T06:19:31;13.83;;;9.90;;
14100;SDS011;7127;49.372;8.166;2023-03-03T06:21:58;10.13;;;8.03;;
14100;SDS011;7127;49.372;8.166;2023-03-03T06:24:25;10.93;;;8.53;;
14100;SDS011;7127;49.372;8.166;2023-03-03T06:26:55;17.83;;;9.93;;
14100;SDS011;7127;49.372;8.166;2023-03-03T06:31:57;8.67;;;7.10;;
14100;SDS011;7127;49.372;8.166;2023-03-03T06:34:24;11.00;;;7.03;;
14100;SDS011;7127;49.372;8.166;2023-03-03T06:36:51;8.70;;;6.93;;
14100;SDS011;7127;49.372;8.166;2023-03-03T06:39:18;9.43;;;7.47;;
14100;SDS011;7127;49.372;8.166;2023-03-03T06:41:44;10.47;;;8.03;;
14100;SDS011;7127;49.372;8.166;2023-03-03T06:44:13;9.37;;;7.20;;
14100;SDS011;7127;49.372;8.166;2023-03-03T06:46:40;8.40;;;6.90;;
14100;SDS011;7127;49.372;8.166;2023-03-03T06:49:06;9.23;;;6.40;;
14100;SDS011;7127;49.372;8.166;2023-03-03T06:51:34;8.33;;;6.40;;
14100;SDS011;7127;49.372;8.166;2023-03-03T06:54:08;10.23;;;6.20;;
14100;SDS011;7127;49.372;8.166;2023-03-03T06:56:36;9.27;;;6.87;;
14100;SDS011;7127;49.372;8.166;2023-03-03T06:59:05;8.27;;;6.07;;
14100;SDS011;7127;49.372;8.166;2023-03-03T07:01:38;6.97;;;5.60;;
14100;SDS011;7127;49.372;8.166;2023-03-03T07:04:09;7.93;;;6.50;;
14100;SDS011;7127;49.372;8.166;2023-03-03T07:06:41;7.77;;;5.90;;
14100;SDS011;7127;49.372;8.166;2023-03-03T07:09:10;7.77;;;6.23;;
14100;SDS011;7127;49.372;8.166;2023-03-03T07:11:45;7.90;;;5.77;;
14100;SDS011;7127;49.372;8.166;2023-03-03T07:14:13;8.90;;;6.93;;
14100;SDS011;7127;49.372;8.166;2023-03-03T07:16:43;8.40;;;6.63;;
14100;SDS011;7127;49.372;8.166;2023-03-03T07:19:15;9.83;;;7.03;;
14100;SDS011;7127;49.372;8.166;2023-03-03T07:21:45;9.53;;;7.50;;
14100;SDS011;7127;49.372;8.166;2023-03-03T07:24:17;8.80;;;6.90;;
14100;SDS011;7127;49.372;8.166;2023-03-03T07:26:51;8.13;;;5.83;;
14100;SDS011;7127;49.372;8.166;2023-03-03T07:29:21;8.67;;;6.13;;
14100;SDS011;7127;49.372;8.166;2023-03-03T07:31:52;7.67;;;6.40;;
14100;SDS011;7127;49.372;8.166;2023-03-03T07:34:22;9.10;;;6.57;;
14100;SDS011;7127;49.372;8.166;2023-03-03T07:36:51;9.47;;;7.47;;
14100;SDS011;7127;49.372;8.166;2023-03-03T07:39:24;9.33;;;6.83;;
14100;SDS011;7127;49.372;8.166;2023-03-03T07:41:57;10.73;;;7.70;;
14100;SDS011;7127;49.372;8.166;2023-03-03T07:44:35;11.20;;;8.17;;
14100;SDS011;7127;49.372;8.166;2023-03-03T07:47:17;10.33;;;8.07;;
14100;SDS011;7127;49.372;8.166;2023-03-03T07:49:49;9.53;;;7.67;;
14100;SDS011;7127;49.372;8.166;2023-03-03T07:52:28;12.60;;;8.43;;
14100;SDS011;7127;49.372;8.166;2023-03-03T07:55:17;11.13;;;8.30;;
14100;SDS011;7127;49.372;8.166;2023-03-03T07:57:51;11.53;;;9.03;;
14100;SDS011;7127;49.372;8.166;2023-03-03T08:03:38;13.73;;;8.37;;
14100;SDS011;7127;49.372;8.166;2023-03-03T08:06:07;13.57;;;9.73;;
14100;SDS011;7127;49.372;8.166;2023-03-03T08:08:51;12.30;;;9.33;;
14100;SDS011;7127;49.372;8.166;2023-03-03T08:11:18;14.90;;;10.40;;
14100;SDS011;7127;49.372;8.166;2023-03-03T08:13:45;13.50;;;10.07;;
14100;SDS011;7127;49.372;8.166;2023-03-03T08:19:04;11.47;;;9.43;;
14100;SDS011;7127;49.372;8.166;2023-03-03T08:21:31;12.63;;;9.80;;
14100;SDS011;7127;49.372;8.166;2023-03-03T08:24:00;13.73;;;9.83;;
14100;SDS011;7127;49.372;8.166;2023-03-03T08:26:27;20.63;;;11.73;;
14100;SDS011;7127;49.372;8.166;2023-03-03T08:28:54;21.13;;;13.70;;
14100;SDS011;7127;49.372;8.166;2023-03-03T08:31:21;17.53;;;12.07;;
14100;SDS011;7127;49.372;8.166;2023-03-03T08:33:48;16.17;;;11.87;;
14100;SDS011;7127;49.372;8.166;2023-03-03T08:36:16;14.80;;;10.87;;
14100;SDS011;7127;49.372;8.166;2023-03-03T08:38:43;14.20;;;11.33;;
14100;SDS011;7127;49.372;8.166;2023-03-03T08:41:10;13.67;;;11.30;;
14100;SDS011;7127;49.372;8.166;2023-03-03T08:43:38;15.33;;;12.30;;
14100;SDS011;7127;49.372;8.166;2023-03-03T08:46:05;13.90;;;12.00;;
14100;SDS011;7127;49.372;8.166;2023-03-03T08:48:34;16.97;;;12.40;;
14100;SDS011;7127;49.372;8.166;2023-03-03T08:51:01;12.47;;;9.70;;
14100;SDS011;7127;49.372;8.166;2023-03-03T08:53:29;14.60;;;11.83;;
14100;SDS011;7127;49.372;8.166;2023-03-03T08:55:58;15.80;;;12.00;;
14100;SDS011;7127;49.372;8.166;2023-03-03T08:58:25;14.37;;;11.73;;
14100;SDS011;7127;49.372;8.166;2023-03-03T09:00:52;16.80;;;12.97;;
14100;SDS011;7127;49.372;8.166;2023-03-03T09:03:19;15.03;;;11.17;;
14100;SDS011;7127;49.372;8.166;2023-03-03T09:05:46;14.00;;;10.63;;
14100;SDS011;7127;49.372;8.166;2023-03-03T09:08:13;12.80;;;10.67;;
14100;SDS011;7127;49.372;8.166;2023-03-03T09:10:42;12.40;;;9.50;;
14100;SDS011;7127;49.372;8.166;2023-03-03T09:13:11;13.20;;;10.67;;
14100;SDS011;7127;49.372;8.166;2023-03-03T09:15:41;14.17;;;11.10;;
14100;SDS011;7127;49.372;8.166;2023-03-03T09:18:10;15.00;;;11.73;;
14100;SDS011;7127;49.372;8.166;2023-03-03T09:20:41;15.47;;;11.17;;
14100;SDS011;7127;49.372;8.166;2023-03-03T09:23:21;13.93;;;10.40;;
14100;SDS011;7127;49.372;8.166;2023-03-03T09:26:04;16.90;;;13.07;;
14100;SDS011;7127;49.372;8.166;2023-03-03T09:29:02;15.33;;;12.37;;
14100;SDS011;7127;49.372;8.166;2023-03-03T09:31:42;16.80;;;13.07;;
14100;SDS011;7127;49.372;8.166;2023-03-03T09:34:15;16.47;;;13.07;;
14100;SDS011;7127;49.372;8.166;2023-03-03T09:36:46;16.63;;;12.53;;
14100;SDS011;7127;49.372;8.166;2023-03-03T09:39:15;16.23;;;11.90;;
14100;SDS011;7127;49.372;8.166;2023-03-03T09:44:54;13.47;;;11.20;;
14100;SDS011;7127;49.372;8.166;2023-03-03T09:47:40;14.63;;;12.07;;
14100;SDS011;7127;49.372;8.166;2023-03-03T09:50:16;15.87;;;12.00;;
14100;SDS011;7127;49.372;8.166;2023-03-03T09:52:54;15.03;;;11.50;;
14100;SDS011;7127;49.372;8.166;2023-03-03T09:55:38;15.33;;;11.90;;
14100;SDS011;7127;49.372;8.166;2023-03-03T09:58:17;16.30;;;12.53;;
14100;SDS011;7127;49.372;8.166;2023-03-03T10:00:56;16.20;;;13.50;;
14100;SDS011;7127;49.372;8.166;2023-03-03T10:03:39;16.23;;;12.87;;
14100;SDS011;7127;49.372;8.166;2023-03-03T10:06:39;16.87;;;12.73;;
14100;SDS011;7127;49.372;8.166;2023-03-03T10:09:25;18.63;;;12.83;;
14100;SDS011;7127;49.372;8.166;2023-03-03T10:12:04;15.90;;;12.73;;
14100;SDS011;7127;49.372;8.166;2023-03-03T10:14:45;18.43;;;14.90;;
14100;SDS011;7127;49.372;8.166;2023-03-03T10:17:23;17.60;;;13.50;;
14100;SDS011;7127;49.372;8.166;2023-03-03T10:20:01;18.23;;;13.90;;
14100;SDS011;7127;49.372;8.166;2023-03-03T10:22:44;18.43;;;14.13;;
14100;SDS011;7127;49.372;8.166;2023-03-03T10:25:20;16.23;;;12.60;;
14100;SDS011;7127;49.372;8.166;2023-03-03T10:28:00;17.47;;;13.33;;
14100;SDS011;7127;49.372;8.166;2023-03-03T10:30:44;15.07;;;11.70;;
14100;SDS011;7127;49.372;8.166;2023-03-03T10:33:19;16.63;;;12.20;;
14100;SDS011;7127;49.372;8.166;2023-03-03T10:35:58;15.17;;;12.87;;
14100;SDS011;7127;49.372;8.166;2023-03-03T10:38:47;16.83;;;12.73;;
14100;SDS011;7127;49.372;8.166;2023-03-03T10:41:25;16.07;;;11.33;;
14100;SDS011;7127;49.372;8.166;2023-03-03T10:44:08;15.43;;;12.13;;
14100;SDS011;7127;49.372;8.166;2023-03-03T10:46:54;13.33;;;10.80;;
14100;SDS011;7127;49.372;8.166;2023-03-03T10:49:31;16.63;;;13.17;;
14100;SDS011;7127;49.372;8.166;2023-03-03T10:52:19;18.20;;;13.33;;
14100;SDS011;7127;49.372;8.166;2023-03-03T10:54:59;15.10;;;12.63;;
14100;SDS011;7127;49.372;8.166;2023-03-03T10:57:51;15.90;;;12.60;;
14100;SDS011;7127;49.372;8.166;2023-03-03T11:00:28;18.23;;;13.80;;
14100;SDS011;7127;49.372;8.166;2023-03-03T11:03:11;16.53;;;12.73;;
14100;SDS011;7127;49.372;8.166;2023-03-03T11:05:55;17.60;;;12.53;;
14100;SDS011;7127;49.372;8.166;2023-03-03T11:08:26;15.00;;;12.90;;
14100;SDS011;7127;49.372;8.166;2023-03-03T11:11:03;15.70;;;12.80;;
14100;SDS011;7127;49.372;8.166;2023-03-03T11:13:36;15.90;;;12.67;;
14100;SDS011;7127;49.372;8.166;2023-03-03T11:16:21;14.37;;;11.90;;
14100;SDS011;7127;49.372;8.166;2023-03-03T11:19:03;18.40;;;14.40;;
14100;SDS011;7127;49.372;8.166;2023-03-03T11:21:39;16.67;;;13.70;;
14100;SDS011;7127;49.372;8.166;2023-03-03T11:24:14;17.10;;;13.70;;
14100;SDS011;7127;49.372;8.166;2023-03-03T11:26:53;16.90;;;13.43;;
14100;SDS011;7127;49.372;8.166;2023-03-03T11:29:34;15.43;;;11.93;;
14100;SDS011;7127;49.372;8.166;2023-03-03T11:32:16;16.07;;;12.40;;
14100;SDS011;7127;49.372;8.166;2023-03-03T11:34:54;17.33;;;12.10;;
14100;SDS011;7127;49.372;8.166;2023-03-03T11:37:34;15.40;;;12.40;;
14100;SDS011;7127;49.372;8.166;2023-03-03T11:40:10;15.73;;;12.17;;
14100;SDS011;7127;49.372;8.166;2023-03-03T11:42:45;16.23;;;12.70;;
14100;SDS011;7127;49.372;8.166;2023-03-03T11:45:26;15.70;;;12.23;;
14100;SDS011;7127;49.372;8.166;2023-03-03T11:48:00;16.53;;;12.90;;
14100;SDS011;7127;49.372;8.166;2023-03-03T11:50:35;16.53;;;12.87;;
14100;SDS011;7127;49.372;8.166;2023-03-03T11:53:16;15.53;;;12.00;;
14100;SDS011;7127;49.372;8.166;2023-03-03T11:56:01;15.97;;;11.80;;
14100;SDS011;7127;49.372;8.166;2023-03-03T11:58:37;13.50;;;11.10;;
14100;SDS011;7127;49.372;8.166;2023-03-03T12:01:13;19.03;;;13.10;;
14100;SDS011;7127;49.372;8.166;2023-03-03T12:03:47;16.50;;;12.70;;
14100;SDS011;7127;49.372;8.166;2023-03-03T12:06:22;15.80;;;13.23;;
14100;SDS011;7127;49.372;8.166;2023-03-03T12:09:02;16.37;;;13.43;;
14100;SDS011;7127;49.372;8.166;2023-03-03T12:11:48;17.63;;;13.60;;
14100;SDS011;7127;49.372;8.166;2023-03-03T12:14:26;15.33;;;12.27;;
14100;SDS011;7127;49.372;8.166;2023-03-03T12:17:03;15.03;;;11.60;;
14100;SDS011;7127;49.372;8.166;2023-03-03T12:19:39;18.70;;;13.97;;
14100;SDS011;7127;49.372;8.166;2023-03-03T12:22:20;15.30;;;12.10;;
14100;SDS011;7127;49.372;8.166;2023-03-03T12:25:12;13.63;;;10.90;;
14100;SDS011;7127;49.372;8.166;2023-03-03T12:27:48;16.37;;;11.70;;
14100;SDS011;7127;49.372;8.166;2023-03-03T12:30:23;13.73;;;10.83;;
14100;SDS011;7127;49.372;8.166;2023-03-03T12:33:04;16.73;;;13.33;;
14100;SDS011;7127;49.372;8.166;2023-03-03T12:35:41;14.87;;;12.00;;
14100;SDS011;7127;49.372;8.166;2023-03-03T12:38:16;16.23;;;12.50;;
14100;SDS011;7127;49.372;8.166;2023-03-03T12:40:55;17.23;;;12.10;;
14100;SDS011;7127;49.372;8.166;2023-03-03T12:43:32;16.27;;;11.33;;
14100;SDS011;7127;49.372;8.166;2023-03-03T12:46:10;13.87;;;10.77;;
14100;SDS011;7127;49.372;8.166;2023-03-03T12:48:45;16.27;;;11.87;;
14100;SDS011;7127;49.372;8.166;2023-03-03T12:51:15;13.03;;;10.50;;
14100;SDS011;7127;49.372;8.166;2023-03-03T12:56:59;13.67;;;10.70;;
14100;SDS011;7127;49.372;8.166;2023-03-03T12:59:35;15.53;;;11.83;;
14100;SDS011;7127;49.372;8.166;2023-03-03T13:02:18;16.03;;;11.87;;
14100;SDS011;7127;49.372;8.166;2023-03-03T13:05:01;15.23;;;11.80;;
14100;SDS011;7127;49.372;8.166;2023-03-03T13:07:35;12.00;;;9.73;;
14100;SDS011;7127;49.372;8.166;2023-03-03T13:10:08;13.10;;;10.93;;
14100;SDS011;7127;49.372;8.166;2023-03-03T13:12:44;13.37;;;10.77;;
14100;SDS011;7127;49.372;8.166;2023-03-03T13:15:15;14.20;;;11.03;;
14100;SDS011;7127;49.372;8.166;2023-03-03T13:17:52;12.87;;;10.20;;
14100;SDS011;7127;49.372;8.166;2023-03-03T13:20:33;13.93;;;11.43;;
14100;SDS011;7127;49.372;8.166;2023-03-03T13:23:06;14.00;;;11.33;;
14100;SDS011;7127;49.372;8.166;2023-03-03T13:25:49;14.60;;;11.27;;
14100;SDS011;7127;49.372;8.166;2023-03-03T13:28:27;12.70;;;10.47;;
14100;SDS011;7127;49.372;8.166;2023-03-03T13:31:00;12.30;;;10.23;;
14100;SDS011;7127;49.372;8.166;2023-03-03T13:33:31;13.53;;;11.23;;
14100;SDS011;7127;49.372;8.166;2023-03-03T13:36:00;12.40;;;9.77;;
14100;SDS011;7127;49.372;8.166;2023-03-03T13:38:31;10.83;;;8.87;;
14100;SDS011;7127;49.372;8.166;2023-03-03T13:41:03;12.17;;;9.50;;
14100;SDS011;7127;49.372;8.166;2023-03-03T13:43:39;11.83;;;9.77;;
14100;SDS011;7127;49.372;8.166;2023-03-03T13:46:13;14.67;;;9.47;;
14100;SDS011;7127;49.372;8.166;2023-03-03T13:48:47;10.67;;;8.93;;
14100;SDS011;7127;49.372;8.166;2023-03-03T13:51:30;11.77;;;8.90;;
14100;SDS011;7127;49.372;8.166;2023-03-03T13:54:08;9.93;;;8.27;;
14100;SDS011;7127;49.372;8.166;2023-03-03T13:56:48;13.53;;;9.73;;
14100;SDS011;7127;49.372;8.166;2023-03-03T13:59:32;12.50;;;9.13;;
14100;SDS011;7127;49.372;8.166;2023-03-03T14:02:07;10.90;;;8.63;;
14100;SDS011;7127;49.372;8.166;2023-03-03T14:04:51;9.63;;;7.73;;
14100;SDS011;7127;49.372;8.166;2023-03-03T14:07:20;8.73;;;6.53;;
14100;SDS011;7127;49.372;8.166;2023-03-03T14:09:55;10.97;;;7.77;;
14100;SDS011;7127;49.372;8.166;2023-03-03T14:12:28;10.93;;;7.70;;
14100;SDS011;7127;49.372;8.166;2023-03-03T14:15:05;9.37;;;7.30;;
14100;SDS011;7127;49.372;8.166;2023-03-03T14:17:43;10.40;;;8.13;;
14100;SDS011;7127;49.372;8.166;2023-03-03T14:20:23;10.70;;;7.90;;
14100;SDS011;7127;49.372;8.166;2023-03-03T14:22:53;10.70;;;8.63;;
14100;SDS011;7127;49.372;8.166;2023-03-03T14:25:23;9.80;;;7.77;;
14100;SDS011;7127;49.372;8.166;2023-03-03T14:27:58;11.27;;;9.37;;
14100;SDS011;7127;49.372;8.166;2023-03-03T14:30:30;11.77;;;8.50;;
14100;SDS011;7127;49.372;8.166;2023-03-03T14:35:43;9.77;;;8.00;;
14100;SDS011;7127;49.372;8.166;2023-03-03T14:38:16;13.17;;;10.30;;
14100;SDS011;7127;49.372;8.166;2023-03-03T14:40:45;11.73;;;8.97;;
14100;SDS011;7127;49.372;8.166;2023-03-03T14:43:21;11.10;;;9.03;;
14100;SDS011;7127;49.372;8.166;2023-03-03T14:45:51;10.63;;;8.27;;
14100;SDS011;7127;49.372;8.166;2023-03-03T14:48:20;11.37;;;8.10;;
14100;SDS011;7127;49.372;8.166;2023-03-03T14:50:49;9.93;;;7.03;;
14100;SDS011;7127;49.372;8.166;2023-03-03T14:53:21;8.97;;;7.50;;
14100;SDS011;7127;49.372;8.166;2023-03-03T14:56:13;12.00;;;9.57;;
14100;SDS011;7127;49.372;8.166;2023-03-03T14:58:42;10.73;;;8.20;;
14100;SDS011;7127;49.372;8.166;2023-03-03T15:01:14;9.73;;;7.13;;
14100;SDS011;7127;49.372;8.166;2023-03-03T15:03:47;9.47;;;7.50;;
14100;SDS011;7127;49.372;8.166;2023-03-03T15:09:31;11.20;;;7.07;;
14100;SDS011;7127;49.372;8.166;2023-03-03T15:12:16;10.17;;;8.23;;
14100;SDS011;7127;49.372;8.166;2023-03-03T15:14:45;9.03;;;7.53;;
14100;SDS011;7127;49.372;8.166;2023-03-03T15:17:18;8.80;;;6.97;;
14100;SDS011;7127;49.372;8.166;2023-03-03T15:22:49;11.27;;;8.10;;
14100;SDS011;7127;49.372;8.166;2023-03-03T15:25:23;8.90;;;7.37;;
14100;SDS011;7127;49.372;8.166;2023-03-03T15:28:12;9.37;;;7.13;;
14100;SDS011;7127;49.372;8.166;2023-03-03T15:30:52;8.93;;;7.27;;
14100;SDS011;7127;49.372;8.166;2023-03-03T15:33:28;10.53;;;8.07;;
14100;SDS011;7127;49.372;8.166;2023-03-03T15:36:02;9.53;;;7.87;;
14100;SDS011;7127;49.372;8.166;2023-03-03T15:38:39;10.20;;;8.20;;
14100;SDS011;7127;49.372;8.166;2023-03-03T15:41:18;10.00;;;7.90;;
14100;SDS011;7127;49.372;8.166;2023-03-03T15:43:55;9.00;;;7.30;;
14100;SDS011;7127;49.372;8.166;2023-03-03T15:46:32;9.03;;;7.50;;
14100;SDS011;7127;49.372;8.166;2023-03-03T15:49:12;8.90;;;6.70;;
14100;SDS011;7127;49.372;8.166;2023-03-03T15:51:54;9.47;;;7.50;;
14100;SDS011;7127;49.372;8.166;2023-03-03T15:54:38;10.93;;;7.90;;